sensor_id;sensor_type;location;lat;lon;timestamp;pressure;altitude;pressure_sealevel;temperature;humidity
72055;BME280;59936;51.490;5.436;2023-10-09T00:00:15;101918.38;;;14.65;79.81
72055;BME280;59936;51.490;5.436;2023-10-09T00:05:50;101922.09;;;14.56;80.78
72055;BME280;59936;51.490;5.436;2023-10-09T00:08:20;101917.91;;;14.86;79.51
72055;BME280;59936;51.490;5.436;2023-10-09T00:10:49;101917.91;;;14.86;79.51
72055;BME280;59936;51.490;5.436;2023-10-09T00:13:19;101903.75;;;14.92;79.44
72055;BME280;59936;51.490;5.436;2023-10-09T00:15:51;101904.75;;;15.16;79.54
72055;BME280;59936;51.490;5.436;2023-10-09T00:18:19;101904.75;;;15.16;79.54
72055;BME280;59936;51.490;5.436;2023-10-09T00:20:48;101900.69;;;15.20;79.75
72055;BME280;59936;51.490;5.436;2023-10-09T00:23:17;101893.59;;;15.27;79.83
72055;BME280;59936;51.490;5.436;2023-10-09T00:25:51;101880.06;;;15.35;80.13
72055;BME280;59936;51.490;5.436;2023-10-09T00:28:20;101883.22;;;15.47;79.99
72055;BME280;59936;51.490;5.436;2023-10-09T00:30:48;101900.28;;;15.55;80.21
72055;BME280;59936;51.490;5.436;2023-10-09T00:33:17;101893.50;;;15.59;80.37
72055;BME280;59936;51.490;5.436;2023-10-09T00:35:46;101891.97;;;15.65;80.48
72055;BME280;59936;51.490;5.436;2023-10-09T00:38:14;101882.63;;;15.76;80.79
72055;BME280;59936;51.490;5.436;2023-10-09T00:40:43;101882.63;;;15.76;80.79
72055;BME280;59936;51.490;5.436;2023-10-09T00:43:12;101866.91;;;15.79;80.61
72055;BME280;59936;51.490;5.436;2023-10-09T00:45:44;101867.41;;;15.83;80.66
72055;BME280;59936;51.490;5.436;2023-10-09T00:48:14;101862.69;;;15.85;80.77
72055;BME280;59936;51.490;5.436;2023-10-09T00:50:43;101866.53;;;15.90;80.66
72055;BME280;59936;51.490;5.436;2023-10-09T00:53:11;101856.22;;;15.94;80.77
72055;BME280;59936;51.490;5.436;2023-10-09T00:55:40;101856.38;;;16.00;80.51
72055;BME280;59936;51.490;5.436;2023-10-09T00:58:11;101859.91;;;16.01;80.74
72055;BME280;59936;51.490;5.436;2023-10-09T01:00:42;101865.81;;;16.04;80.63
72055;BME280;59936;51.490;5.436;2023-10-09T01:03:12;101881.50;;;16.09;80.53
72055;BME280;59936;51.490;5.436;2023-10-09T01:05:43;101881.50;;;16.09;80.53
72055;BME280;59936;51.490;5.436;2023-10-09T01:08:16;101872.72;;;16.07;80.47
72055;BME280;59936;51.490;5.436;2023-10-09T01:10:47;101870.03;;;16.07;80.60
72055;BME280;59936;51.490;5.436;2023-10-09T01:13:16;101870.50;;;16.11;80.61
72055;BME280;59936;51.490;5.436;2023-10-09T01:15:44;101881.78;;;16.14;80.49
72055;BME280;59936;51.490;5.436;2023-10-09T01:18:13;101881.78;;;16.14;80.49
72055;BME280;59936;51.490;5.436;2023-10-09T01:20:42;101862.19;;;16.12;80.55
72055;BME280;59936;51.490;5.436;2023-10-09T01:23:12;101865.41;;;16.16;80.50
72055;BME280;59936;51.490;5.436;2023-10-09T01:25:40;101866.91;;;16.18;80.27
72055;BME280;59936;51.490;5.436;2023-10-09T01:28:09;101866.56;;;16.21;80.41
72055;BME280;59936;51.490;5.436;2023-10-09T01:30:38;101865.53;;;16.22;80.24
72055;BME280;59936;51.490;5.436;2023-10-09T01:33:08;101866.19;;;16.24;80.07
72055;BME280;59936;51.490;5.436;2023-10-09T01:35:36;101876.00;;;16.25;80.27
72055;BME280;59936;51.490;5.436;2023-10-09T01:38:05;101876.00;;;16.25;80.27
72055;BME280;59936;51.490;5.436;2023-10-09T01:40:34;101871.44;;;16.26;80.05
72055;BME280;59936;51.490;5.436;2023-10-09T01:43:02;101878.34;;;16.28;79.83
72055;BME280;59936;51.490;5.436;2023-10-09T01:45:31;101884.44;;;16.30;80.02
72055;BME280;59936;51.490;5.436;2023-10-09T01:48:00;101871.94;;;16.29;79.86
72055;BME280;59936;51.490;5.436;2023-10-09T01:50:28;101871.94;;;16.29;79.86
72055;BME280;59936;51.490;5.436;2023-10-09T01:52:57;101868.38;;;16.29;79.77
72055;BME280;59936;51.490;5.436;2023-10-09T01:55:25;101870.06;;;16.30;79.71
72055;BME280;59936;51.490;5.436;2023-10-09T01:57:55;101873.03;;;16.35;79.53
72055;BME280;59936;51.490;5.436;2023-10-09T02:00:24;101873.03;;;16.35;79.53
72055;BME280;59936;51.490;5.436;2023-10-09T02:02:52;101873.59;;;16.30;79.58
72055;BME280;59936;51.490;5.436;2023-10-09T02:05:21;101865.50;;;16.30;79.72
72055;BME280;59936;51.490;5.436;2023-10-09T02:07:50;101865.50;;;16.30;79.72
72055;BME280;59936;51.490;5.436;2023-10-09T02:10:21;101864.66;;;16.30;79.50
72055;BME280;59936;51.490;5.436;2023-10-09T02:12:52;101858.41;;;16.29;79.43
72055;BME280;59936;51.490;5.436;2023-10-09T02:15:21;101875.28;;;16.31;79.52
72055;BME280;59936;51.490;5.436;2023-10-09T02:17:50;101867.19;;;16.31;79.49
72055;BME280;59936;51.490;5.436;2023-10-09T02:20:18;101867.19;;;16.31;79.58
72055;BME280;59936;51.490;5.436;2023-10-09T02:22:47;101867.19;;;16.31;79.58
72055;BME280;59936;51.490;5.436;2023-10-09T02:25:15;101858.41;;;16.29;79.45
72055;BME280;59936;51.490;5.436;2023-10-09T02:27:44;101858.41;;;16.29;79.45
72055;BME280;59936;51.490;5.436;2023-10-09T02:30:13;101850.47;;;16.28;79.31
72055;BME280;59936;51.490;5.436;2023-10-09T02:32:42;101859.59;;;16.27;79.35
72055;BME280;59936;51.490;5.436;2023-10-09T02:35:11;101860.63;;;16.26;79.43
72055;BME280;59936;51.490;5.436;2023-10-09T02:37:40;101849.81;;;16.26;79.44
72055;BME280;59936;51.490;5.436;2023-10-09T02:40:08;101843.53;;;16.25;79.40
72055;BME280;59936;51.490;5.436;2023-10-09T02:42:37;101838.81;;;16.27;79.16
72055;BME280;59936;51.490;5.436;2023-10-09T02:45:06;101826.47;;;16.25;79.24
72055;BME280;59936;51.490;5.436;2023-10-09T02:47:35;101839.50;;;16.21;79.21
72055;BME280;59936;51.490;5.436;2023-10-09T02:50:05;101831.88;;;16.25;79.11
72055;BME280;59936;51.490;5.436;2023-10-09T02:52:34;101813.13;;;16.23;79.12
72055;BME280;59936;51.490;5.436;2023-10-09T02:55:03;101807.72;;;16.23;79.12
72055;BME280;59936;51.490;5.436;2023-10-09T02:57:31;101815.84;;;16.23;79.16
72055;BME280;59936;51.490;5.436;2023-10-09T03:00:00;101824.78;;;16.24;79.13
72055;BME280;59936;51.490;5.436;2023-10-09T03:02:29;101824.78;;;16.24;79.16
72055;BME280;59936;51.490;5.436;2023-10-09T03:04:57;101830.03;;;16.25;nan
72055;BME280;59936;51.490;5.436;2023-10-09T03:07:26;101829.19;;;16.25;79.03
72055;BME280;59936;51.490;5.436;2023-10-09T03:09:54;101830.03;;;16.25;78.83
72055;BME280;59936;51.490;5.436;2023-10-09T03:12:23;101828.34;;;16.24;78.86
72055;BME280;59936;51.490;5.436;2023-10-09T03:14:52;101839.69;;;16.20;79.02
72055;BME280;59936;51.490;5.436;2023-10-09T03:17:20;101830.72;;;16.19;78.91
72055;BME280;59936;51.490;5.436;2023-10-09T03:19:49;101836.13;;;16.19;78.85
72055;BME280;59936;51.490;5.436;2023-10-09T03:22:17;101836.13;;;16.19;78.85
72055;BME280;59936;51.490;5.436;2023-10-09T03:24:46;101825.69;;;16.16;78.79
72055;BME280;59936;51.490;5.436;2023-10-09T03:27:14;101815.03;;;16.15;78.78
72055;BME280;59936;51.490;5.436;2023-10-09T03:29:43;101815.03;;;16.15;78.78
72055;BME280;59936;51.490;5.436;2023-10-09T03:32:12;101808.50;;;16.09;78.73
72055;BME280;59936;51.490;5.436;2023-10-09T03:34:40;101806.81;;;16.08;78.89
72055;BME280;59936;51.490;5.436;2023-10-09T03:37:09;101806.81;;;16.08;78.89
72055;BME280;59936;51.490;5.436;2023-10-09T03:39:37;101805.50;;;16.04;78.70
72055;BME280;59936;51.490;5.436;2023-10-09T03:42:06;101805.50;;;16.04;78.70
72055;BME280;59936;51.490;5.436;2023-10-09T03:44:35;101798.75;;;16.00;78.89
72055;BME280;59936;51.490;5.436;2023-10-09T03:47:04;101795.53;;;16.04;78.48
72055;BME280;59936;51.490;5.436;2023-10-09T03:49:32;101795.53;;;16.04;78.48
72055;BME280;59936;51.490;5.436;2023-10-09T03:52:01;101786.91;;;16.01;78.43
72055;BME280;59936;51.490;5.436;2023-10-09T03:54:30;101792.50;;;15.99;78.55
72055;BME280;59936;51.490;5.436;2023-10-09T03:56:58;101784.22;;;16.01;78.50
72055;BME280;59936;51.490;5.436;2023-10-09T03:59:28;101786.06;;;16.00;78.70
72055;BME280;59936;51.490;5.436;2023-10-09T04:01:56;101790.47;;;16.01;78.69
72055;BME280;59936;51.490;5.436;2023-10-09T04:04:25;101782.19;;;16.03;78.44
72055;BME280;59936;51.490;5.436;2023-10-09T04:06:53;101790.47;;;16.01;78.49
72055;BME280;59936;51.490;5.436;2023-10-09T04:09:22;101782.19;;;16.03;78.42
72055;BME280;59936;51.490;5.436;2023-10-09T04:11:52;101786.75;;;16.02;78.40
72055;BME280;59936;51.490;5.436;2023-10-09T04:14:21;101790.47;;;16.01;78.50
72055;BME280;59936;51.490;5.436;2023-10-09T04:16:50;101793.34;;;16.00;78.64
72055;BME280;59936;51.490;5.436;2023-10-09T04:19:19;101795.69;;;16.03;78.42
72055;BME280;59936;51.490;5.436;2023-10-09T04:21:48;101795.69;;;16.03;78.42
72055;BME280;59936;51.490;5.436;2023-10-09T04:24:16;101778.81;;;16.01;78.24
72055;BME280;59936;51.490;5.436;2023-10-09T04:26:45;101789.81;;;15.99;78.35
72055;BME280;59936;51.490;5.436;2023-10-09T04:29:15;101775.44;;;15.99;78.40
72055;BME280;59936;51.490;5.436;2023-10-09T04:31:45;101758.88;;;16.02;78.38
72055;BME280;59936;51.490;5.436;2023-10-09T04:34:14;101759.03;;;16.00;78.53
72055;BME280;59936;51.490;5.436;2023-10-09T04:36:42;101760.56;;;16.03;78.89
72055;BME280;59936;51.490;5.436;2023-10-09T04:39:11;101760.56;;;16.03;78.89
72055;BME280;59936;51.490;5.436;2023-10-09T04:41:40;101771.38;;;16.03;78.77
72055;BME280;59936;51.490;5.436;2023-10-09T04:44:09;101800.94;;;16.04;78.95
72055;BME280;59936;51.490;5.436;2023-10-09T04:46:38;101808.31;;;16.11;78.41
72055;BME280;59936;51.490;5.436;2023-10-09T04:49:06;101811.00;;;16.11;78.65
72055;BME280;59936;51.490;5.436;2023-10-09T04:51:35;101811.00;;;16.11;78.65
72055;BME280;59936;51.490;5.436;2023-10-09T04:54:03;101817.63;;;16.08;78.82
72055;BME280;59936;51.490;5.436;2023-10-09T04:56:32;101816.06;;;16.14;78.36
72055;BME280;59936;51.490;5.436;2023-10-09T04:59:01;101813.19;;;16.15;78.23
72055;BME280;59936;51.490;5.436;2023-10-09T05:01:30;101813.19;;;16.15;78.23
72055;BME280;59936;51.490;5.436;2023-10-09T05:03:59;101793.97;;;16.10;78.60
72055;BME280;59936;51.490;5.436;2023-10-09T05:06:27;101791.44;;;16.09;78.73
72055;BME280;59936;51.490;5.436;2023-10-09T05:08:56;101803.56;;;16.13;78.75
72055;BME280;59936;51.490;5.436;2023-10-09T05:11:24;101809.81;;;16.13;78.61
72055;BME280;59936;51.490;5.436;2023-10-09T05:13:53;101808.78;;;16.14;78.39
72055;BME280;59936;51.490;5.436;2023-10-09T05:16:22;101808.78;;;16.14;78.39
72055;BME280;59936;51.490;5.436;2023-10-09T05:18:52;101802.09;;;16.10;78.60
72055;BME280;59936;51.490;5.436;2023-10-09T05:21:32;101812.69;;;16.12;78.52
72055;BME280;59936;51.490;5.436;2023-10-09T05:24:04;101816.72;;;16.16;78.37
72055;BME280;59936;51.490;5.436;2023-10-09T05:26:33;101800.50;;;16.16;78.41
72055;BME280;59936;51.490;5.436;2023-10-09T05:29:01;101813.19;;;16.15;78.61
72055;BME280;59936;51.490;5.436;2023-10-09T05:31:30;101824.66;;;16.17;79.13
72055;BME280;59936;51.490;5.436;2023-10-09T05:33:58;101809.09;;;16.19;78.81
72055;BME280;59936;51.490;5.436;2023-10-09T05:36:27;101809.09;;;16.19;78.81
72055;BME280;59936;51.490;5.436;2023-10-09T05:38:56;101827.19;;;16.19;78.53
72055;BME280;59936;51.490;5.436;2023-10-09T05:41:25;101843.28;;;16.12;79.32
72055;BME280;59936;51.490;5.436;2023-10-09T05:43:54;101846.47;;;16.16;78.91
72055;BME280;59936;51.490;5.436;2023-10-09T05:46:22;101843.75;;;16.16;78.83
72055;BME280;59936;51.490;5.436;2023-10-09T05:48:51;101843.75;;;16.16;78.83
72055;BME280;59936;51.490;5.436;2023-10-09T05:51:20;101850.75;;;16.10;78.94
72055;BME280;59936;51.490;5.436;2023-10-09T05:53:48;101845.63;;;16.15;78.75
72055;BME280;59936;51.490;5.436;2023-10-09T05:56:17;101831.94;;;16.17;78.73
72055;BME280;59936;51.490;5.436;2023-10-09T05:58:45;101850.19;;;16.15;78.84
72055;BME280;59936;51.490;5.436;2023-10-09T06:01:14;101852.22;;;16.13;79.04
72055;BME280;59936;51.490;5.436;2023-10-09T06:03:42;101852.72;;;16.16;78.86
72055;BME280;59936;51.490;5.436;2023-10-09T06:06:11;101852.72;;;16.16;78.86
72055;BME280;59936;51.490;5.436;2023-10-09T06:08:40;101868.44;;;16.13;78.96
72055;BME280;59936;51.490;5.436;2023-10-09T06:11:09;101872.31;;;16.18;78.85
72055;BME280;59936;51.490;5.436;2023-10-09T06:13:39;101872.31;;;16.18;78.85
72055;BME280;59936;51.490;5.436;2023-10-09T06:16:07;101873.50;;;16.16;78.85
72055;BME280;59936;51.490;5.436;2023-10-09T06:18:36;101875.50;;;16.22;78.45
72055;BME280;59936;51.490;5.436;2023-10-09T06:21:05;101875.50;;;16.22;78.45
72055;BME280;59936;51.490;5.436;2023-10-09T06:23:33;101868.78;;;16.18;78.53
72055;BME280;59936;51.490;5.436;2023-10-09T06:26:02;101857.09;;;16.17;78.96
72055;BME280;59936;51.490;5.436;2023-10-09T06:28:30;101857.09;;;16.17;78.96
72055;BME280;59936;51.490;5.436;2023-10-09T06:30:59;101858.78;;;16.18;78.75
72055;BME280;59936;51.490;5.436;2023-10-09T06:33:27;101851.00;;;16.23;78.69
72055;BME280;59936;51.490;5.436;2023-10-09T06:35:56;101851.00;;;16.23;78.69
72055;BME280;59936;51.490;5.436;2023-10-09T06:38:25;101847.09;;;16.26;78.69
72055;BME280;59936;51.490;5.436;2023-10-09T06:40:53;101855.22;;;16.26;78.96
72055;BME280;59936;51.490;5.436;2023-10-09T06:43:22;101860.94;;;16.31;78.75
72055;BME280;59936;51.490;5.436;2023-10-09T06:45:57;101858.50;;;16.36;78.63
72055;BME280;59936;51.490;5.436;2023-10-09T06:48:27;101870.16;;;16.36;78.83
72055;BME280;59936;51.490;5.436;2023-10-09T06:50:56;101878.94;;;16.38;78.69
72055;BME280;59936;51.490;5.436;2023-10-09T06:53:25;101863.69;;;16.46;78.86
72055;BME280;59936;51.490;5.436;2023-10-09T06:55:54;101863.69;;;16.46;78.86
72055;BME280;59936;51.490;5.436;2023-10-09T06:58:22;101857.91;;;16.49;78.31
72055;BME280;59936;51.490;5.436;2023-10-09T07:00:52;101850.66;;;16.49;78.43
72055;BME280;59936;51.490;5.436;2023-10-09T07:03:22;101839.91;;;16.56;78.30
72055;BME280;59936;51.490;5.436;2023-10-09T07:05:50;101840.59;;;16.58;78.68
72055;BME280;59936;51.490;5.436;2023-10-09T07:08:19;101833.78;;;16.62;78.34
72055;BME280;59936;51.490;5.436;2023-10-09T07:10:47;101833.78;;;16.62;78.34
72055;BME280;59936;51.490;5.436;2023-10-09T07:13:16;101818.81;;;16.74;78.04
72055;BME280;59936;51.490;5.436;2023-10-09T07:15:44;101818.81;;;16.74;78.04
72055;BME280;59936;51.490;5.436;2023-10-09T07:18:13;101803.50;;;16.81;78.23
72055;BME280;59936;51.490;5.436;2023-10-09T07:20:42;101803.44;;;16.89;77.86
72055;BME280;59936;51.490;5.436;2023-10-09T07:23:10;101803.44;;;16.89;77.86
72055;BME280;59936;51.490;5.436;2023-10-09T07:25:40;101792.59;;;16.89;77.98
72055;BME280;59936;51.490;5.436;2023-10-09T07:28:10;101806.47;;;16.94;77.97
72055;BME280;59936;51.490;5.436;2023-10-09T07:30:39;101804.84;;;17.00;77.78
72055;BME280;59936;51.490;5.436;2023-10-09T07:33:08;101815.97;;;17.05;77.63
72055;BME280;59936;51.490;5.436;2023-10-09T07:38:07;101842.88;;;17.06;77.52
72055;BME280;59936;51.490;5.436;2023-10-09T07:40:39;101860.69;;;17.01;77.73
72055;BME280;59936;51.490;5.436;2023-10-09T07:43:07;101891.31;;;17.01;77.78
72055;BME280;59936;51.490;5.436;2023-10-09T07:45:36;101898.13;;;16.97;78.29
72055;BME280;59936;51.490;5.436;2023-10-09T07:48:04;101898.13;;;16.97;78.29
72055;BME280;59936;51.490;5.436;2023-10-09T07:50:37;101892.94;;;16.96;78.17
72055;BME280;59936;51.490;5.436;2023-10-09T07:53:07;101896.47;;;16.96;78.11
72055;BME280;59936;51.490;5.436;2023-10-09T07:55:39;101900.66;;;16.99;78.06
72055;BME280;59936;51.490;5.436;2023-10-09T07:58:07;101871.47;;;17.09;77.68
72055;BME280;59936;51.490;5.436;2023-10-09T08:00:42;101871.47;;;17.09;77.68
72055;BME280;59936;51.490;5.436;2023-10-09T08:03:15;101857.25;;;17.07;77.79
72055;BME280;59936;51.490;5.436;2023-10-09T08:05:52;101855.88;;;17.11;77.74
72055;BME280;59936;51.490;5.436;2023-10-09T08:08:24;101857.47;;;17.20;77.61
72055;BME280;59936;51.490;5.436;2023-10-09T08:10:58;101857.47;;;17.20;77.61
72055;BME280;59936;51.490;5.436;2023-10-09T08:13:30;101857.00;;;17.17;77.66
72055;BME280;59936;51.490;5.436;2023-10-09T08:15:58;101870.81;;;17.22;77.57
72055;BME280;59936;51.490;5.436;2023-10-09T08:18:27;101872.31;;;17.24;77.52
72055;BME280;59936;51.490;5.436;2023-10-09T08:20:55;101879.44;;;17.40;77.58
72055;BME280;59936;51.490;5.436;2023-10-09T08:23:24;101879.44;;;17.40;77.58
72055;BME280;59936;51.490;5.436;2023-10-09T08:25:58;101869.72;;;17.46;77.41
72055;BME280;59936;51.490;5.436;2023-10-09T08:28:30;101878.41;;;17.70;77.33
72055;BME280;59936;51.490;5.436;2023-10-09T08:30:59;101878.41;;;17.70;77.33
72055;BME280;59936;51.490;5.436;2023-10-09T08:33:27;101864.19;;;17.83;76.95
72055;BME280;59936;51.490;5.436;2023-10-09T08:35:56;101867.56;;;18.00;76.55
72055;BME280;59936;51.490;5.436;2023-10-09T08:38:25;101858.41;;;18.22;76.30
72055;BME280;59936;51.490;5.436;2023-10-09T08:40:54;101850.03;;;18.60;75.51
72055;BME280;59936;51.490;5.436;2023-10-09T08:43:22;101850.56;;;18.70;74.82
72055;BME280;59936;51.490;5.436;2023-10-09T08:45:55;101845.06;;;18.63;75.23
72055;BME280;59936;51.490;5.436;2023-10-09T08:48:25;101845.06;;;18.63;75.06
72055;BME280;59936;51.490;5.436;2023-10-09T08:50:55;101833.09;;;18.58;75.14
72055;BME280;59936;51.490;5.436;2023-10-09T08:53:24;101839.94;;;18.54;75.29
72055;BME280;59936;51.490;5.436;2023-10-09T08:55:53;101839.56;;;18.57;75.43
72055;BME280;59936;51.490;5.436;2023-10-09T08:58:22;101844.06;;;18.71;75.15
72055;BME280;59936;51.490;5.436;2023-10-09T09:00:52;101845.53;;;18.95;74.27
72055;BME280;59936;51.490;5.436;2023-10-09T09:03:21;101836.63;;;19.35;73.54
72055;BME280;59936;51.490;5.436;2023-10-09T09:06:00;101836.94;;;19.54;72.82
72055;BME280;59936;51.490;5.436;2023-10-09T09:08:32;101839.69;;;19.60;72.61
72055;BME280;59936;51.490;5.436;2023-10-09T09:11:03;101843.47;;;19.66;72.51
72055;BME280;59936;51.490;5.436;2023-10-09T09:13:35;101845.16;;;19.67;72.22
72055;BME280;59936;51.490;5.436;2023-10-09T09:16:04;101842.03;;;19.70;71.94
72055;BME280;59936;51.490;5.436;2023-10-09T09:18:48;101850.53;;;19.95;71.85
72055;BME280;59936;51.490;5.436;2023-10-09T09:21:18;101860.66;;;20.14;71.36
72055;BME280;59936;51.490;5.436;2023-10-09T09:23:54;101852.97;;;20.37;70.91
72055;BME280;59936;51.490;5.436;2023-10-09T09:26:36;101868.25;;;20.38;69.76
72055;BME280;59936;51.490;5.436;2023-10-09T09:29:06;101873.28;;;20.41;70.05
72055;BME280;59936;51.490;5.436;2023-10-09T09:31:35;101875.75;;;20.30;70.75
72055;BME280;59936;51.490;5.436;2023-10-09T09:34:07;101873.44;;;20.27;70.66
72055;BME280;59936;51.490;5.436;2023-10-09T09:36:36;101873.91;;;20.37;70.72
72055;BME280;59936;51.490;5.436;2023-10-09T09:39:05;101903.38;;;20.20;70.94
72055;BME280;59936;51.490;5.436;2023-10-09T09:41:34;101903.38;;;20.20;70.94
72055;BME280;59936;51.490;5.436;2023-10-09T09:44:04;101890.13;;;20.04;71.42
72055;BME280;59936;51.490;5.436;2023-10-09T09:46:34;101894.91;;;20.02;71.83
72055;BME280;59936;51.490;5.436;2023-10-09T09:49:06;101901.19;;;20.02;71.78
72055;BME280;59936;51.490;5.436;2023-10-09T09:51:35;101910.59;;;19.93;71.23
72055;BME280;59936;51.490;5.436;2023-10-09T09:54:03;101904.47;;;19.85;71.45
72055;BME280;59936;51.490;5.436;2023-10-09T09:56:33;101907.84;;;19.87;71.50
72055;BME280;59936;51.490;5.436;2023-10-09T09:59:07;101909.75;;;19.93;71.69
72055;BME280;59936;51.490;5.436;2023-10-09T10:01:38;101912.47;;;19.93;71.25
72055;BME280;59936;51.490;5.436;2023-10-09T10:04:10;101916.06;;;20.00;71.60
72055;BME280;59936;51.490;5.436;2023-10-09T10:06:43;101910.69;;;20.13;71.37
72055;BME280;59936;51.490;5.436;2023-10-09T10:09:35;101910.69;;;20.13;71.37
72055;BME280;59936;51.490;5.436;2023-10-09T10:12:04;101914.91;;;20.29;70.16
72055;BME280;59936;51.490;5.436;2023-10-09T10:14:53;101913.88;;;20.30;69.87
72055;BME280;59936;51.490;5.436;2023-10-09T10:17:22;101915.38;;;20.39;70.23
72055;BME280;59936;51.490;5.436;2023-10-09T10:22:27;101908.25;;;20.44;70.15
72055;BME280;59936;51.490;5.436;2023-10-09T10:24:56;101912.66;;;20.52;70.10
72055;BME280;59936;51.490;5.436;2023-10-09T10:27:26;101907.28;;;20.72;70.32
72055;BME280;59936;51.490;5.436;2023-10-09T10:32:53;101901.00;;;21.11;69.41
72055;BME280;59936;51.490;5.436;2023-10-09T10:35:26;101907.13;;;21.06;66.96
72055;BME280;59936;51.490;5.436;2023-10-09T10:37:55;101914.84;;;21.09;69.47
72055;BME280;59936;51.490;5.436;2023-10-09T10:40:24;101909.41;;;21.03;69.08
72055;BME280;59936;51.490;5.436;2023-10-09T10:42:52;101901.84;;;21.11;68.96
72055;BME280;59936;51.490;5.436;2023-10-09T10:45:21;101901.44;;;21.14;68.75
72055;BME280;59936;51.490;5.436;2023-10-09T10:47:50;101908.16;;;21.18;68.89
72055;BME280;59936;51.490;5.436;2023-10-09T10:50:19;101909.78;;;21.33;68.78
72055;BME280;59936;51.490;5.436;2023-10-09T10:52:48;101899.94;;;21.45;68.14
72055;BME280;59936;51.490;5.436;2023-10-09T10:55:16;101903.53;;;21.19;67.85
72055;BME280;59936;51.490;5.436;2023-10-09T10:57:45;101901.88;;;20.98;68.42
72055;BME280;59936;51.490;5.436;2023-10-09T11:00:14;101899.97;;;20.99;68.34
72055;BME280;59936;51.490;5.436;2023-10-09T11:02:46;101906.06;;;21.01;68.46
72055;BME280;59936;51.490;5.436;2023-10-09T11:05:14;101893.06;;;21.03;67.76
72055;BME280;59936;51.490;5.436;2023-10-09T11:07:43;101903.09;;;21.09;68.71
72055;BME280;59936;51.490;5.436;2023-10-09T11:10:22;101903.50;;;21.39;68.47
72055;BME280;59936;51.490;5.436;2023-10-09T11:12:53;101906.00;;;21.60;67.52
72055;BME280;59936;51.490;5.436;2023-10-09T11:15:33;101910.63;;;21.46;67.71
72055;BME280;59936;51.490;5.436;2023-10-09T11:18:09;101915.66;;;21.56;67.53
72055;BME280;59936;51.490;5.436;2023-10-09T11:20:39;101906.88;;;21.41;67.71
72055;BME280;59936;51.490;5.436;2023-10-09T11:23:09;101914.59;;;21.70;66.89
72055;BME280;59936;51.490;5.436;2023-10-09T11:25:39;101914.59;;;21.70;66.89
72055;BME280;59936;51.490;5.436;2023-10-09T11:30:50;101912.19;;;22.00;66.57
72055;BME280;59936;51.490;5.436;2023-10-09T11:33:19;101912.19;;;22.00;66.57
72055;BME280;59936;51.490;5.436;2023-10-09T11:35:55;101899.63;;;21.93;66.97
72055;BME280;59936;51.490;5.436;2023-10-09T11:38:24;101906.28;;;22.03;66.26
72055;BME280;59936;51.490;5.436;2023-10-09T11:40:53;101900.91;;;21.83;66.57
72055;BME280;59936;51.490;5.436;2023-10-09T11:43:22;101900.91;;;21.83;66.57
72055;BME280;59936;51.490;5.436;2023-10-09T11:45:50;101888.31;;;21.82;66.42
72055;BME280;59936;51.490;5.436;2023-10-09T11:48:19;101890.53;;;22.05;66.18
72055;BME280;59936;51.490;5.436;2023-10-09T11:50:52;101893.19;;;22.18;65.57
72055;BME280;59936;51.490;5.436;2023-10-09T11:53:21;101899.69;;;22.17;65.97
72055;BME280;59936;51.490;5.436;2023-10-09T11:55:51;101898.34;;;21.95;66.46
72055;BME280;59936;51.490;5.436;2023-10-09T11:58:20;101906.50;;;22.02;66.43
72055;BME280;59936;51.490;5.436;2023-10-09T12:03:24;101894.91;;;22.13;66.34
72055;BME280;59936;51.490;5.436;2023-10-09T12:06:01;101893.97;;;21.94;66.00
72055;BME280;59936;51.490;5.436;2023-10-09T12:08:31;101899.16;;;21.96;65.81
72055;BME280;59936;51.490;5.436;2023-10-09T12:11:02;101899.22;;;21.89;66.26
72055;BME280;59936;51.490;5.436;2023-10-09T12:13:33;101901.06;;;21.95;66.11
72055;BME280;59936;51.490;5.436;2023-10-09T12:16:01;101901.72;;;21.91;65.98
72055;BME280;59936;51.490;5.436;2023-10-09T12:18:30;101899.00;;;21.91;66.15
72055;BME280;59936;51.490;5.436;2023-10-09T12:20:58;101900.50;;;22.25;65.80
72055;BME280;59936;51.490;5.436;2023-10-09T12:23:27;101900.50;;;22.25;65.80
72055;BME280;59936;51.490;5.436;2023-10-09T12:25:56;101894.88;;;22.19;66.08
72055;BME280;59936;51.490;5.436;2023-10-09T12:28:24;101900.38;;;22.13;65.82
72055;BME280;59936;51.490;5.436;2023-10-09T12:30:53;101892.00;;;22.08;66.21
72055;BME280;59936;51.490;5.436;2023-10-09T12:33:22;101885.06;;;22.12;66.37
72055;BME280;59936;51.490;5.436;2023-10-09T12:35:50;101902.50;;;22.11;66.34
72055;BME280;59936;51.490;5.436;2023-10-09T12:38:19;101902.50;;;22.11;66.34
72055;BME280;59936;51.490;5.436;2023-10-09T12:40:48;101888.84;;;22.11;66.03
72055;BME280;59936;51.490;5.436;2023-10-09T12:43:18;101885.50;;;22.02;66.17
72055;BME280;59936;51.490;5.436;2023-10-09T12:45:46;101888.44;;;22.01;65.94
72055;BME280;59936;51.490;5.436;2023-10-09T12:48:15;101882.16;;;22.00;66.21
72055;BME280;59936;51.490;5.436;2023-10-09T12:50:44;101868.16;;;21.90;66.06
72055;BME280;59936;51.490;5.436;2023-10-09T12:53:12;101880.75;;;21.91;65.97
72055;BME280;59936;51.490;5.436;2023-10-09T12:55:41;101870.19;;;22.01;66.03
72055;BME280;59936;51.490;5.436;2023-10-09T12:58:11;101871.22;;;22.00;65.69
72055;BME280;59936;51.490;5.436;2023-10-09T13:00:40;101867.22;;;22.09;65.80
72055;BME280;59936;51.490;5.436;2023-10-09T13:03:11;101856.44;;;22.21;65.73
72055;BME280;59936;51.490;5.436;2023-10-09T13:05:39;101838.97;;;22.35;65.53
72055;BME280;59936;51.490;5.436;2023-10-09T13:08:08;101836.78;;;22.44;65.26
72055;BME280;59936;51.490;5.436;2023-10-09T13:10:36;101836.13;;;22.48;65.34
72055;BME280;59936;51.490;5.436;2023-10-09T13:13:05;101841.53;;;22.55;64.81
72055;BME280;59936;51.490;5.436;2023-10-09T13:15:34;101838.63;;;22.50;64.91
72055;BME280;59936;51.490;5.436;2023-10-09T13:20:31;101832.78;;;22.71;64.63